Time;durP1;ratioP1;P1;durP2;ratioP2;P2;SDS_P1;SDS_P2;PMS_P1;PMS_P2;Temp;Humidity;BMP_temperature;BMP_pressure;BME280_temperature;BME280_humidity;BME280_pressure;Samples;Min_cycle;Max_cycle;Signal;HPM_P1;HPM_P2
2023/11/15 00:01:54;;;;;;;5.50;1.83;;;;;;;;;;779075;179;859767;-63
2023/11/15 00:04:20;;;;;;;2.70;1.37;;;;;;;;;;776073;179;918214;-63
2023/11/15 00:06:45;;;;;;;2.50;1.30;;;;;;;;;;772686;178;922113;-64
2023/11/15 00:09:12;;;;;;;5.90;1.33;;;;;;;;;;772990;179;921036;-63
2023/11/15 00:11:37;;;;;;;3.40;1.13;;;;;;;;;;777511;179;919343;-65
2023/11/15 00:14:03;;;;;;;7.03;1.43;;;;;;;;;;782126;179;822134;-64
2023/11/15 00:16:29;;;;;;;3.43;1.40;;;;;;;;;;775624;179;923386;-63
2023/11/15 00:18:54;;;;;;;2.27;1.30;;;;;;;;;;778159;179;920203;-64
2023/11/15 00:21:20;;;;;;;2.60;1.33;;;;;;;;;;777010;180;919479;-64
2023/11/15 00:23:46;;;;;;;2.47;1.40;;;;;;;;;;777082;179;916775;-62
2023/11/15 00:26:12;;;;;;;3.70;1.33;;;;;;;;;;774008;179;919576;-63
2023/11/15 00:28:39;;;;;;;2.63;1.47;;;;;;;;;;783066;179;816277;-65
2023/11/15 00:31:04;;;;;;;3.17;1.20;;;;;;;;;;777396;179;919450;-65
2023/11/15 00:33:30;;;;;;;3.20;1.37;;;;;;;;;;775304;179;919365;-65
2023/11/15 00:35:56;;;;;;;3.70;1.23;;;;;;;;;;774356;179;910167;-63
2023/11/15 00:38:22;;;;;;;2.97;1.57;;;;;;;;;;781428;179;921434;-67
2023/11/15 00:40:47;;;;;;;2.70;1.40;;;;;;;;;;771733;179;920922;-63
2023/11/15 00:43:15;;;;;;;4.00;1.50;;;;;;;;;;776223;179;920620;-63
2023/11/15 00:45:39;;;;;;;6.13;1.53;;;;;;;;;;783084;178;917703;-65
2023/11/15 00:48:05;;;;;;;4.40;1.67;;;;;;;;;;776961;178;912139;-64
2023/11/15 00:50:31;;;;;;;2.87;1.27;;;;;;;;;;780744;178;916407;-63
2023/11/15 00:52:58;;;;;;;2.93;0.90;;;;;;;;;;783947;178;919084;-66
2023/11/15 00:55:22;;;;;;;2.70;1.40;;;;;;;;;;777867;178;917833;-63
2023/11/15 00:57:49;;;;;;;3.47;1.27;;;;;;;;;;778220;175;919311;-63
2023/11/15 01:02:46;;;;;;;2.80;1.20;;;;;;;;;;777038;179;918870;-67
2023/11/15 01:05:12;;;;;;;2.20;1.23;;;;;;;;;;772473;179;810646;-64
2023/11/15 01:07:37;;;;;;;3.63;1.27;;;;;;;;;;774390;178;818479;-64
2023/11/15 01:10:08;;;;;;;4.13;1.40;;;;;;;;;;777170;179;850673;-67
2023/11/15 01:12:29;;;;;;;4.33;1.30;;;;;;;;;;781160;178;918768;-66
2023/11/15 01:14:55;;;;;;;4.67;1.77;;;;;;;;;;779320;179;917851;-64
2023/11/15 01:17:21;;;;;;;2.90;1.50;;;;;;;;;;779129;179;917272;-64
2023/11/15 01:19:49;;;;;;;3.17;1.50;;;;;;;;;;775226;179;918955;-64
2023/11/15 01:22:13;;;;;;;4.33;1.40;;;;;;;;;;773732;179;918843;-63
2023/11/15 01:24:41;;;;;;;2.50;1.20;;;;;;;;;;776601;180;851831;-64
2023/11/15 01:27:06;;;;;;;2.83;1.37;;;;;;;;;;778453;179;916878;-63
2023/11/15 01:29:30;;;;;;;3.10;1.20;;;;;;;;;;774932;179;919000;-63
2023/11/15 01:31:56;;;;;;;2.90;1.10;;;;;;;;;;776972;179;915424;-64
2023/11/15 01:34:22;;;;;;;4.57;1.90;;;;;;;;;;775755;179;919359;-64
2023/11/15 01:36:48;;;;;;;2.80;1.90;;;;;;;;;;777455;179;919584;-64
2023/11/15 01:39:16;;;;;;;4.83;2.77;;;;;;;;;;778123;179;923063;-63
2023/11/15 01:41:47;;;;;;;4.10;2.97;;;;;;;;;;781916;179;918852;-63
2023/11/15 01:44:05;;;;;;;4.60;2.47;;;;;;;;;;778373;179;918461;-64
2023/11/15 01:46:31;;;;;;;3.87;2.90;;;;;;;;;;774518;179;918775;-64
2023/11/15 01:48:59;;;;;;;4.87;2.37;;;;;;;;;;776190;179;913610;-63
2023/11/15 01:51:23;;;;;;;4.73;2.10;;;;;;;;;;768917;180;866167;-64
2023/11/15 01:53:49;;;;;;;6.43;2.53;;;;;;;;;;772907;177;916439;-65
2023/11/15 01:56:14;;;;;;;3.47;2.27;;;;;;;;;;776188;179;915404;-62
2023/11/15 01:58:41;;;;;;;3.90;2.67;;;;;;;;;;783156;178;814274;-65
2023/11/15 02:01:08;;;;;;;5.45;2.42;;;;;;;;;;775272;178;918316;-64
2023/11/15 02:03:32;;;;;;;3.70;3.03;;;;;;;;;;776935;178;918500;-63
2023/11/15 02:05:58;;;;;;;5.33;3.03;;;;;;;;;;782149;178;817149;-65
2023/11/15 02:08:24;;;;;;;4.67;3.07;;;;;;;;;;779826;178;817550;-65
2023/11/15 02:10:50;;;;;;;4.30;3.47;;;;;;;;;;773817;178;924075;-64
2023/11/15 02:13:21;;;;;;;4.90;3.07;;;;;;;;;;780518;178;917755;-65
2023/11/15 02:15:46;;;;;;;8.83;4.00;;;;;;;;;;774480;180;914182;-64
2023/11/15 02:18:12;;;;;;;4.27;2.80;;;;;;;;;;777477;178;912135;-66
2023/11/15 02:20:38;;;;;;;4.80;2.53;;;;;;;;;;776876;179;914281;-66
2023/11/15 02:23:04;;;;;;;3.90;3.33;;;;;;;;;;782275;175;919288;-65
2023/11/15 02:25:30;;;;;;;5.20;3.03;;;;;;;;;;775551;179;945871;-65
2023/11/15 02:27:56;;;;;;;4.47;2.57;;;;;;;;;;776095;179;919702;-64
2023/11/15 02:30:21;;;;;;;6.50;2.93;;;;;;;;;;780153;179;919609;-65
2023/11/15 02:32:47;;;;;;;4.15;2.70;;;;;;;;;;774355;179;926303;-64
2023/11/15 02:35:13;;;;;;;5.30;2.60;;;;;;;;;;770115;179;1012045;-62
2023/11/15 02:37:39;;;;;;;8.80;2.70;;;;;;;;;;773226;179;915628;-66
2023/11/15 02:40:09;;;;;;;5.97;2.37;;;;;;;;;;775808;179;886822;-64
2023/11/15 02:42:31;;;;;;;4.40;2.17;;;;;;;;;;777666;179;918923;-65
2023/11/15 02:44:57;;;;;;;4.70;2.60;;;;;;;;;;778908;179;822889;-65
2023/11/15 02:47:25;;;;;;;3.30;2.00;;;;;;;;;;774732;179;918422;-65
2023/11/15 02:49:50;;;;;;;5.10;2.53;;;;;;;;;;776295;179;929214;-65
2023/11/15 02:52:15;;;;;;;2.95;2.00;;;;;;;;;;774581;179;918665;-65
2023/11/15 02:54:40;;;;;;;3.20;1.70;;;;;;;;;;782113;179;864015;-64
2023/11/15 02:57:07;;;;;;;3.08;1.87;;;;;;;;;;776409;179;877592;-65
2023/11/15 02:59:32;;;;;;;3.67;1.80;;;;;;;;;;774735;179;919993;-65
2023/11/15 03:01:58;;;;;;;2.78;1.58;;;;;;;;;;782372;179;919378;-64
2023/11/15 03:04:24;;;;;;;2.97;1.57;;;;;;;;;;776666;179;917660;-65
2023/11/15 03:06:50;;;;;;;2.97;1.98;;;;;;;;;;776735;179;918879;-65
2023/11/15 03:09:16;;;;;;;2.90;1.70;;;;;;;;;;776875;176;919191;-64
2023/11/15 03:11:41;;;;;;;2.83;1.33;;;;;;;;;;786228;178;918903;-64
2023/11/15 03:14:08;;;;;;;2.87;1.67;;;;;;;;;;779279;178;919352;-63
2023/11/15 03:16:33;;;;;;;4.40;1.83;;;;;;;;;;776784;178;918112;-64
2023/11/15 03:18:59;;;;;;;3.43;1.53;;;;;;;;;;783975;178;918827;-65
2023/11/15 03:21:25;;;;;;;2.80;1.60;;;;;;;;;;773786;178;921720;-64
2023/11/15 03:23:50;;;;;;;4.10;2.80;;;;;;;;;;776623;178;923436;-64
2023/11/15 03:26:16;;;;;;;2.80;1.77;;;;;;;;;;783581;178;918655;-64
2023/11/15 03:28:42;;;;;;;2.93;1.83;;;;;;;;;;777219;177;919340;-65
2023/11/15 03:31:12;;;;;;;3.73;1.90;;;;;;;;;;782595;178;919201;-64
2023/11/15 03:33:34;;;;;;;5.50;2.07;;;;;;;;;;777326;177;872531;-64
2023/11/15 03:36:00;;;;;;;2.97;2.13;;;;;;;;;;773555;180;919511;-64
2023/11/15 03:38:25;;;;;;;8.00;2.13;;;;;;;;;;778877;177;816094;-64
2023/11/15 03:40:51;;;;;;;4.87;2.30;;;;;;;;;;778740;179;849831;-65
2023/11/15 03:43:17;;;;;;;3.70;2.17;;;;;;;;;;781452;179;916335;-65
2023/11/15 03:45:43;;;;;;;4.03;2.17;;;;;;;;;;774078;178;917232;-64
2023/11/15 03:48:09;;;;;;;2.45;1.45;;;;;;;;;;775053;179;1021225;-64
2023/11/15 03:50:35;;;;;;;4.03;2.23;;;;;;;;;;782884;179;893511;-63
2023/11/15 03:53:02;;;;;;;3.67;1.83;;;;;;;;;;774529;179;919686;-65
2023/11/15 03:55:26;;;;;;;2.97;2.00;;;;;;;;;;773659;179;919155;-64
2023/11/15 03:57:52;;;;;;;6.93;1.63;;;;;;;;;;782654;178;914591;-65
2023/11/15 04:00:18;;;;;;;3.33;1.97;;;;;;;;;;773457;179;926819;-64
2023/11/15 04:02:45;;;;;;;3.37;1.97;;;;;;;;;;772229;178;857437;-65
2023/11/15 04:05:10;;;;;;;2.67;1.50;;;;;;;;;;776683;179;913466;-64
2023/11/15 04:07:37;;;;;;;3.07;2.00;;;;;;;;;;780748;176;886324;-65
2023/11/15 04:10:01;;;;;;;6.10;2.27;;;;;;;;;;774993;178;817860;-65
2023/11/15 04:12:27;;;;;;;5.10;1.70;;;;;;;;;;777239;178;945690;-64
2023/11/15 04:14:53;;;;;;;3.33;1.75;;;;;;;;;;781771;180;920008;-65
2023/11/15 04:17:19;;;;;;;2.63;1.30;;;;;;;;;;771411;179;917359;-66
2023/11/15 04:19:45;;;;;;;3.62;1.60;;;;;;;;;;775769;179;888910;-65
2023/11/15 04:22:11;;;;;;;2.70;1.40;;;;;;;;;;785484;176;795117;-64
2023/11/15 04:24:37;;;;;;;6.15;2.12;;;;;;;;;;779693;178;922458;-64
2023/11/15 04:27:04;;;;;;;7.50;1.50;;;;;;;;;;774724;178;920465;-65
2023/11/15 04:29:29;;;;;;;3.13;2.43;;;;;;;;;;774582;178;917984;-64
2023/11/15 04:31:55;;;;;;;3.93;1.40;;;;;;;;;;770764;180;927055;-66
2023/11/15 04:34:21;;;;;;;3.33;1.40;;;;;;;;;;778683;178;815658;-66
2023/11/15 04:36:47;;;;;;;2.50;1.10;;;;;;;;;;777394;178;813776;-65
2023/11/15 04:39:13;;;;;;;2.50;1.45;;;;;;;;;;784330;177;783128;-66
2023/11/15 04:41:38;;;;;;;3.10;1.77;;;;;;;;;;772846;179;831764;-65
2023/11/15 04:44:04;;;;;;;2.50;1.40;;;;;;;;;;772476;179;1018853;-66
2023/11/15 04:46:30;;;;;;;2.10;1.10;;;;;;;;;;777478;179;918889;-65
2023/11/15 04:48:56;;;;;;;2.60;1.27;;;;;;;;;;776388;175;918685;-66
2023/11/15 04:51:22;;;;;;;4.10;1.47;;;;;;;;;;776560;179;923534;-66
2023/11/15 04:53:48;;;;;;;3.10;1.50;;;;;;;;;;782246;177;949724;-66
2023/11/15 04:56:13;;;;;;;3.00;1.50;;;;;;;;;;775418;179;919013;-66
2023/11/15 04:58:40;;;;;;;2.50;1.40;;;;;;;;;;768731;179;918852;-66
2023/11/15 05:01:06;;;;;;;3.20;1.43;;;;;;;;;;771406;179;943446;-67
2023/11/15 05:03:31;;;;;;;4.73;1.90;;;;;;;;;;781283;179;813547;-67
2023/11/15 05:05:57;;;;;;;3.13;1.63;;;;;;;;;;776375;179;917043;-67
2023/11/15 05:08:23;;;;;;;2.50;1.20;;;;;;;;;;779478;179;625463;-66
2023/11/15 05:10:49;;;;;;;3.80;1.70;;;;;;;;;;783900;179;618694;-68
2023/11/15 05:13:14;;;;;;;2.80;1.50;;;;;;;;;;780901;177;622740;-67
2023/11/15 05:15:40;;;;;;;4.07;1.70;;;;;;;;;;774692;178;637918;-66
2023/11/15 05:18:06;;;;;;;3.17;2.40;;;;;;;;;;783034;179;820223;-66
2023/11/15 05:20:32;;;;;;;4.60;1.90;;;;;;;;;;776397;179;615774;-66
2023/11/15 05:22:58;;;;;;;3.53;1.53;;;;;;;;;;779003;179;649754;-66
2023/11/15 05:25:24;;;;;;;4.05;1.60;;;;;;;;;;779008;178;680822;-67
2023/11/15 05:27:49;;;;;;;3.43;2.00;;;;;;;;;;780212;179;637501;-66
2023/11/15 05:30:15;;;;;;;3.65;1.62;;;;;;;;;;779912;179;713034;-67
2023/11/15 05:32:41;;;;;;;3.83;1.97;;;;;;;;;;780229;176;647574;-68
2023/11/15 05:35:10;;;;;;;8.87;2.43;;;;;;;;;;785545;178;633580;-69
2023/11/15 05:37:33;;;;;;;4.07;1.70;;;;;;;;;;779655;178;638021;-66
2023/11/15 05:40:00;;;;;;;6.53;1.70;;;;;;;;;;781754;178;625174;-66
2023/11/15 05:42:25;;;;;;;2.73;1.43;;;;;;;;;;782028;178;629379;-67
2023/11/15 05:44:51;;;;;;;2.50;1.53;;;;;;;;;;782581;178;847033;-66
2023/11/15 05:47:17;;;;;;;2.25;1.35;;;;;;;;;;778953;178;917426;-65
2023/11/15 05:49:43;;;;;;;2.60;1.40;;;;;;;;;;781817;178;917977;-66
2023/11/15 05:52:08;;;;;;;2.90;1.40;;;;;;;;;;782073;177;629233;-67
2023/11/15 05:54:34;;;;;;;4.53;1.30;;;;;;;;;;782253;179;622977;-67
2023/11/15 05:57:00;;;;;;;2.30;1.27;;;;;;;;;;772389;177;1024322;-67
2023/11/15 05:59:27;;;;;;;2.50;1.30;;;;;;;;;;781217;179;920100;-66
2023/11/15 06:01:54;;;;;;;2.43;1.40;;;;;;;;;;772542;179;816543;-64
2023/11/15 06:04:18;;;;;;;3.60;2.10;;;;;;;;;;773774;179;919094;-66
2023/11/15 06:06:44;;;;;;;6.10;1.37;;;;;;;;;;777827;179;920172;-66
2023/11/15 06:09:14;;;;;;;3.30;1.63;;;;;;;;;;772728;179;816844;-65
2023/11/15 06:11:39;;;;;;;3.57;1.53;;;;;;;;;;776527;179;915501;-65
2023/11/15 06:14:02;;;;;;;2.77;1.57;;;;;;;;;;780633;179;915934;-67
2023/11/15 06:16:28;;;;;;;4.43;2.00;;;;;;;;;;778626;179;807480;-64
2023/11/15 06:18:54;;;;;;;2.53;1.40;;;;;;;;;;775634;179;845856;-66
2023/11/15 06:21:20;;;;;;;5.30;1.87;;;;;;;;;;775333;179;920389;-68
2023/11/15 06:23:46;;;;;;;3.30;1.80;;;;;;;;;;780602;179;839296;-65
2023/11/15 06:26:12;;;;;;;2.63;1.13;;;;;;;;;;775654;179;921888;-66
2023/11/15 06:28:37;;;;;;;2.70;1.50;;;;;;;;;;774637;179;938460;-66
2023/11/15 06:31:04;;;;;;;3.93;1.70;;;;;;;;;;778861;179;919081;-66
2023/11/15 06:33:30;;;;;;;3.87;1.50;;;;;;;;;;774507;176;891304;-66
2023/11/15 06:35:56;;;;;;;5.40;1.77;;;;;;;;;;773850;179;919454;-66
2023/11/15 06:38:21;;;;;;;2.87;1.23;;;;;;;;;;778693;179;1022870;-66
2023/11/15 06:40:47;;;;;;;2.10;1.10;;;;;;;;;;776675;179;918872;-67
2023/11/15 06:43:12;;;;;;;2.50;1.60;;;;;;;;;;779229;179;818777;-67
2023/11/15 06:45:39;;;;;;;4.33;1.30;;;;;;;;;;779270;178;918767;-67
2023/11/15 06:48:06;;;;;;;5.40;1.83;;;;;;;;;;777348;178;887098;-67
2023/11/15 06:50:32;;;;;;;3.30;1.60;;;;;;;;;;776842;178;921676;-66
2023/11/15 06:52:56;;;;;;;4.05;2.12;;;;;;;;;;777577;178;919241;-67
2023/11/15 06:55:22;;;;;;;3.30;1.60;;;;;;;;;;783016;178;927047;-65
2023/11/15 06:57:48;;;;;;;2.70;1.47;;;;;;;;;;775577;178;918536;-66
2023/11/15 07:00:14;;;;;;;4.60;2.13;;;;;;;;;;773500;178;921319;-66
2023/11/15 07:02:41;;;;;;;3.00;1.37;;;;;;;;;;781282;178;919109;-65
2023/11/15 07:05:10;;;;;;;2.70;1.27;;;;;;;;;;778308;179;1020614;-68
2023/11/15 07:07:33;;;;;;;2.17;1.10;;;;;;;;;;777742;179;918121;-66
2023/11/15 07:10:00;;;;;;;2.58;1.25;;;;;;;;;;777284;179;820673;-67
2023/11/15 07:12:25;;;;;;;2.30;1.20;;;;;;;;;;777666;179;816499;-66
2023/11/15 07:14:52;;;;;;;2.10;1.00;;;;;;;;;;774137;179;919496;-68
2023/11/15 07:17:19;;;;;;;2.17;1.10;;;;;;;;;;775613;179;918581;-67
2023/11/15 07:19:43;;;;;;;3.20;1.43;;;;;;;;;;780331;179;918395;-66
2023/11/15 07:22:09;;;;;;;3.10;1.20;;;;;;;;;;773517;176;918758;-64
2023/11/15 07:24:39;;;;;;;2.07;1.10;;;;;;;;;;778487;179;918610;-65
2023/11/15 07:27:00;;;;;;;2.30;1.50;;;;;;;;;;781292;179;817013;-66
2023/11/15 07:29:26;;;;;;;3.30;1.33;;;;;;;;;;775570;179;935400;-66
2023/11/15 07:31:52;;;;;;;2.87;1.60;;;;;;;;;;776253;179;920612;-66
2023/11/15 07:34:18;;;;;;;2.60;1.60;;;;;;;;;;777885;176;918390;-66
2023/11/15 07:36:44;;;;;;;2.10;1.10;;;;;;;;;;776383;179;864001;-66
2023/11/15 07:39:13;;;;;;;4.40;1.63;;;;;;;;;;770938;177;916043;-65
2023/11/15 07:41:36;;;;;;;3.50;1.40;;;;;;;;;;779194;179;883820;-65
2023/11/15 07:44:02;;;;;;;2.30;1.30;;;;;;;;;;781627;177;917676;-65
2023/11/15 07:46:29;;;;;;;5.80;1.55;;;;;;;;;;774709;180;916884;-67
2023/11/15 07:48:53;;;;;;;5.13;1.37;;;;;;;;;;773144;179;924812;-66
2023/11/15 07:51:19;;;;;;;3.13;1.10;;;;;;;;;;781349;179;917091;-66
2023/11/15 07:53:45;;;;;;;2.03;1.00;;;;;;;;;;773880;178;919576;-65
2023/11/15 07:56:11;;;;;;;2.20;1.30;;;;;;;;;;775650;178;928790;-65
2023/11/15 07:58:37;;;;;;;2.40;1.27;;;;;;;;;;783196;178;924865;-67
2023/11/15 08:01:03;;;;;;;2.20;1.27;;;;;;;;;;777325;178;917773;-66
2023/11/15 08:03:29;;;;;;;2.33;1.30;;;;;;;;;;772120;178;921748;-65
2023/11/15 08:05:55;;;;;;;7.37;1.50;;;;;;;;;;777533;178;918791;-66
2023/11/15 08:08:20;;;;;;;2.07;1.23;;;;;;;;;;769002;180;917857;-66
2023/11/15 08:10:48;;;;;;;3.90;1.23;;;;;;;;;;778649;178;816277;-67
2023/11/15 08:13:13;;;;;;;2.10;1.10;;;;;;;;;;778185;175;904456;-66
2023/11/15 08:15:38;;;;;;;2.10;1.10;;;;;;;;;;780154;179;810450;-66
2023/11/15 08:18:04;;;;;;;2.43;1.37;;;;;;;;;;777494;179;817483;-67
2023/11/15 08:20:29;;;;;;;2.65;1.23;;;;;;;;;;771598;179;915863;-67
2023/11/15 08:22:57;;;;;;;2.47;1.20;;;;;;;;;;778172;177;916567;-67
2023/11/15 08:25:21;;;;;;;3.37;1.48;;;;;;;;;;779891;179;918568;-67
2023/11/15 08:27:47;;;;;;;2.00;1.00;;;;;;;;;;776605;179;918089;-65
2023/11/15 08:30:17;;;;;;;2.20;1.50;;;;;;;;;;785065;178;817197;-66
2023/11/15 08:32:41;;;;;;;4.53;1.43;;;;;;;;;;777722;179;913212;-65
2023/11/15 08:35:06;;;;;;;2.73;1.23;;;;;;;;;;775464;180;920183;-66
2023/11/15 08:37:32;;;;;;;2.20;1.30;;;;;;;;;;775978;179;918476;-66
2023/11/15 08:39:58;;;;;;;2.47;1.07;;;;;;;;;;776830;179;919454;-66
2023/11/15 08:42:24;;;;;;;6.57;1.40;;;;;;;;;;772592;179;920154;-66
2023/11/15 08:44:50;;;;;;;3.55;1.30;;;;;;;;;;778212;179;919863;-66
2023/11/15 08:47:15;;;;;;;4.33;1.10;;;;;;;;;;778808;176;917462;-68
2023/11/15 08:49:42;;;;;;;2.53;1.30;;;;;;;;;;775762;179;919133;-66
2023/11/15 08:52:07;;;;;;;2.00;1.00;;;;;;;;;;775294;179;919692;-67
2023/11/15 08:54:33;;;;;;;4.90;1.23;;;;;;;;;;780326;179;1124832;-65
2023/11/15 08:56:58;;;;;;;2.83;1.17;;;;;;;;;;776326;179;915050;-65
2023/11/15 08:59:26;;;;;;;2.13;1.00;;;;;;;;;;778416;178;830223;-67
2023/11/15 09:01:50;;;;;;;2.07;0.93;;;;;;;;;;776542;179;817247;-64
2023/11/15 09:04:17;;;;;;;2.33;1.20;;;;;;;;;;778664;177;1002957;-66
2023/11/15 09:06:46;;;;;;;2.07;1.00;;;;;;;;;;772896;180;925169;-66
2023/11/15 09:09:08;;;;;;;1.80;0.80;;;;;;;;;;775470;178;1226368;-66
2023/11/15 09:11:34;;;;;;;1.93;0.87;;;;;;;;;;786177;178;919050;-64
2023/11/15 09:13:59;;;;;;;1.90;0.80;;;;;;;;;;774269;176;919569;-64
2023/11/15 09:16:25;;;;;;;4.90;1.60;;;;;;;;;;777990;178;920767;-67
2023/11/15 09:18:52;;;;;;;2.43;1.20;;;;;;;;;;778341;178;919258;-66
2023/11/15 09:21:18;;;;;;;1.90;0.90;;;;;;;;;;777549;178;918085;-68
2023/11/15 09:23:43;;;;;;;2.20;1.10;;;;;;;;;;781709;177;921018;-68
2023/11/15 09:26:15;;;;;;;2.67;1.10;;;;;;;;;;774433;179;919098;-66
2023/11/15 09:28:37;;;;;;;2.53;1.10;;;;;;;;;;768569;180;820584;-68
2023/11/15 09:31:05;;;;;;;2.05;0.95;;;;;;;;;;780563;178;819724;-66
2023/11/15 09:33:29;;;;;;;2.50;1.27;;;;;;;;;;774273;179;818685;-66
2023/11/15 09:35:56;;;;;;;2.43;1.00;;;;;;;;;;777290;179;920789;-66
2023/11/15 09:38:21;;;;;;;2.15;0.93;;;;;;;;;;778134;179;815612;-68
2023/11/15 09:40:48;;;;;;;2.37;1.10;;;;;;;;;;776621;179;817079;-68
2023/11/15 09:43:13;;;;;;;2.03;1.00;;;;;;;;;;776832;179;817020;-66
2023/11/15 09:45:38;;;;;;;2.10;1.20;;;;;;;;;;775971;179;919595;-66
2023/11/15 09:48:08;;;;;;;2.40;1.07;;;;;;;;;;777372;179;919534;-66
2023/11/15 09:50:33;;;;;;;2.20;1.00;;;;;;;;;;774660;179;919508;-66
2023/11/15 09:52:59;;;;;;;3.43;1.27;;;;;;;;;;771408;180;918557;-66
2023/11/15 09:55:24;;;;;;;2.22;1.10;;;;;;;;;;775289;178;928949;-68
2023/11/15 09:57:51;;;;;;;2.00;1.00;;;;;;;;;;776243;179;918981;-66
2023/11/15 10:00:16;;;;;;;2.20;1.10;;;;;;;;;;784032;179;918973;-66
2023/11/15 10:02:41;;;;;;;6.53;1.30;;;;;;;;;;773687;179;921868;-68
2023/11/15 10:05:11;;;;;;;2.87;1.27;;;;;;;;;;776678;179;921237;-66
2023/11/15 10:07:40;;;;;;;2.50;1.20;;;;;;;;;;777434;179;919326;-66
2023/11/15 10:10:04;;;;;;;3.70;1.40;;;;;;;;;;770423;180;916841;-66
2023/11/15 10:12:29;;;;;;;2.67;1.10;;;;;;;;;;765436;180;933223;-67
2023/11/15 10:14:55;;;;;;;2.30;1.10;;;;;;;;;;774170;178;919331;-67
2023/11/15 10:17:21;;;;;;;2.33;0.93;;;;;;;;;;784929;179;918427;-67
2023/11/15 10:19:47;;;;;;;3.10;1.30;;;;;;;;;;770257;179;937080;-65
2023/11/15 10:22:15;;;;;;;2.63;1.10;;;;;;;;;;773655;178;817056;-68
2023/11/15 10:24:38;;;;;;;2.20;1.03;;;;;;;;;;787303;178;820957;-66
2023/11/15 10:27:04;;;;;;;2.20;1.00;;;;;;;;;;775540;175;919613;-66
2023/11/15 10:29:31;;;;;;;2.70;1.30;;;;;;;;;;771836;178;919671;-67
2023/11/15 10:31:56;;;;;;;2.72;1.30;;;;;;;;;;786714;178;912159;-66
2023/11/15 10:34:31;;;;;;;2.20;1.13;;;;;;;;;;780279;178;918562;-66
2023/11/15 10:37:05;;;;;;;2.33;1.20;;;;;;;;;;773274;178;917781;-66
2023/11/15 10:39:29;;;;;;;2.10;1.17;;;;;;;;;;774838;179;918337;-67
2023/11/15 10:41:55;;;;;;;2.73;1.30;;;;;;;;;;775528;179;917013;-68
2023/11/15 10:44:21;;;;;;;5.00;1.47;;;;;;;;;;769453;180;1123288;-66
2023/11/15 10:46:47;;;;;;;3.20;1.73;;;;;;;;;;776164;179;918318;-67
2023/11/15 10:49:13;;;;;;;2.33;1.13;;;;;;;;;;776170;179;921470;-67
2023/11/15 10:51:38;;;;;;;2.23;1.33;;;;;;;;;;780831;179;920559;-67
2023/11/15 10:54:04;;;;;;;2.43;1.20;;;;;;;;;;772972;177;918651;-68
2023/11/15 10:56:29;;;;;;;2.33;1.20;;;;;;;;;;775562;179;918687;-66
2023/11/15 10:58:55;;;;;;;2.63;1.33;;;;;;;;;;776791;176;918996;-67
2023/11/15 11:01:22;;;;;;;2.70;1.33;;;;;;;;;;774291;179;918100;-66
2023/11/15 11:03:51;;;;;;;2.40;1.30;;;;;;;;;;774576;178;916875;-66
2023/11/15 11:06:15;;;;;;;2.50;1.27;;;;;;;;;;772064;179;916723;-66
2023/11/15 11:08:44;;;;;;;4.30;1.67;;;;;;;;;;773799;180;918225;-68
2023/11/15 11:11:17;;;;;;;2.20;1.27;;;;;;;;;;780710;179;854879;-67
2023/11/15 11:13:40;;;;;;;2.20;1.20;;;;;;;;;;775790;179;916717;-68
2023/11/15 11:16:29;;;;;;;2.10;1.15;;;;;;;;;;783152;179;917546;-66
2023/11/15 11:19:01;;;;;;;2.00;1.00;;;;;;;;;;772088;177;919982;-66
2023/11/15 11:21:26;;;;;;;2.80;1.20;;;;;;;;;;779243;178;919118;-67
2023/11/15 11:23:59;;;;;;;3.00;1.50;;;;;;;;;;775970;179;918798;-65
2023/11/15 11:26:30;;;;;;;2.80;1.43;;;;;;;;;;769067;179;918448;-67
2023/11/15 11:28:58;;;;;;;3.20;1.30;;;;;;;;;;774758;179;933359;-66
2023/11/15 11:31:23;;;;;;;2.60;1.40;;;;;;;;;;783967;178;915664;-67
2023/11/15 11:34:04;;;;;;;3.05;1.23;;;;;;;;;;773941;178;818120;-66
2023/11/15 11:36:49;;;;;;;2.63;1.10;;;;;;;;;;778581;178;917907;-67
2023/11/15 11:39:12;;;;;;;2.13;1.07;;;;;;;;;;770394;179;919792;-67
2023/11/15 11:41:37;;;;;;;2.53;1.35;;;;;;;;;;772677;178;920139;-67
2023/11/15 11:44:04;;;;;;;2.30;1.30;;;;;;;;;;783405;178;922990;-67
2023/11/15 11:46:29;;;;;;;3.00;1.57;;;;;;;;;;772724;179;919957;-66
2023/11/15 11:48:59;;;;;;;2.50;1.30;;;;;;;;;;775848;179;918529;-66
2023/11/15 11:51:23;;;;;;;2.30;1.40;;;;;;;;;;777435;179;917717;-67
2023/11/15 11:53:49;;;;;;;2.40;1.23;;;;;;;;;;783915;175;908650;-66
2023/11/15 11:56:15;;;;;;;2.80;1.30;;;;;;;;;;779614;179;919502;-65
2023/11/15 11:58:41;;;;;;;4.67;1.40;;;;;;;;;;777198;179;919434;-67
2023/11/15 12:01:07;;;;;;;2.40;1.20;;;;;;;;;;782428;179;921988;-66
2023/11/15 12:03:33;;;;;;;2.63;1.13;;;;;;;;;;778078;179;920329;-66
2023/11/15 12:05:59;;;;;;;2.50;1.20;;;;;;;;;;777077;179;927835;-66
2023/11/15 12:08:24;;;;;;;3.12;1.50;;;;;;;;;;778107;179;919362;-68
2023/11/15 12:10:50;;;;;;;2.97;1.47;;;;;;;;;;775133;179;919937;-66
2023/11/15 12:13:16;;;;;;;2.10;1.00;;;;;;;;;;775433;179;917319;-66
2023/11/15 12:15:43;;;;;;;2.00;1.10;;;;;;;;;;772972;179;919153;-67
2023/11/15 12:18:09;;;;;;;3.53;1.40;;;;;;;;;;772872;181;901258;-67
2023/11/15 12:20:33;;;;;;;2.50;1.50;;;;;;;;;;778983;178;918509;-65
2023/11/15 12:23:04;;;;;;;4.87;1.50;;;;;;;;;;776617;177;921566;-66
2023/11/15 12:25:30;;;;;;;3.00;1.33;;;;;;;;;;776769;178;914868;-66
2023/11/15 12:27:56;;;;;;;3.20;1.50;;;;;;;;;;772795;179;817010;-66
2023/11/15 12:30:23;;;;;;;2.27;1.27;;;;;;;;;;776552;179;919948;-66
2023/11/15 12:32:48;;;;;;;2.30;1.30;;;;;;;;;;773650;179;917350;-67
2023/11/15 12:35:15;;;;;;;3.63;2.33;;;;;;;;;;767645;182;919287;-66
2023/11/15 12:37:41;;;;;;;4.50;2.03;;;;;;;;;;778761;178;917859;-66
2023/11/15 12:40:08;;;;;;;6.83;1.60;;;;;;;;;;774501;179;919655;-66
2023/11/15 12:42:36;;;;;;;3.43;1.27;;;;;;;;;;781873;178;820777;-66
2023/11/15 12:45:00;;;;;;;1.90;0.93;;;;;;;;;;772067;178;918129;-67
2023/11/15 12:47:26;;;;;;;2.03;1.00;;;;;;;;;;776308;178;924904;-65
2023/11/15 12:49:52;;;;;;;2.20;1.10;;;;;;;;;;783807;178;919120;-65
2023/11/15 12:52:34;;;;;;;5.87;1.30;;;;;;;;;;775188;179;918725;-66
2023/11/15 12:55:01;;;;;;;2.57;1.30;;;;;;;;;;777901;178;920220;-66
2023/11/15 12:57:26;;;;;;;3.00;1.40;;;;;;;;;;777522;178;818277;-66
2023/11/15 12:59:52;;;;;;;2.90;1.57;;;;;;;;;;779465;178;920848;-66
2023/11/15 13:02:22;;;;;;;3.33;1.30;;;;;;;;;;771718;179;919570;-66
2023/11/15 13:04:50;;;;;;;2.50;1.20;;;;;;;;;;775053;178;917531;-68
2023/11/15 13:07:15;;;;;;;2.17;1.20;;;;;;;;;;775837;179;919097;-67
2023/11/15 13:09:40;;;;;;;2.23;1.30;;;;;;;;;;782830;179;918463;-66
2023/11/15 13:12:06;;;;;;;2.40;1.17;;;;;;;;;;772896;178;918092;-67
2023/11/15 13:14:32;;;;;;;1.90;1.00;;;;;;;;;;778058;179;918997;-67
2023/11/15 13:16:58;;;;;;;2.10;1.00;;;;;;;;;;782529;179;815144;-66
2023/11/15 13:19:25;;;;;;;2.60;0.90;;;;;;;;;;775665;179;918788;-66
2023/11/15 13:21:50;;;;;;;2.40;1.10;;;;;;;;;;773959;179;918938;-66
2023/11/15 13:24:17;;;;;;;2.27;1.13;;;;;;;;;;776043;178;919407;-66
2023/11/15 13:26:43;;;;;;;3.07;1.00;;;;;;;;;;781465;179;918909;-66
2023/11/15 13:29:08;;;;;;;2.10;1.10;;;;;;;;;;771732;179;1737518;-66
2023/11/15 13:31:33;;;;;;;2.03;0.97;;;;;;;;;;778469;179;908982;-66
2023/11/15 13:33:59;;;;;;;2.00;0.97;;;;;;;;;;779441;180;923767;-67
2023/11/15 13:36:27;;;;;;;2.00;1.00;;;;;;;;;;774915;179;921925;-67
2023/11/15 13:38:51;;;;;;;2.60;1.20;;;;;;;;;;772919;179;919929;-66
2023/11/15 13:41:22;;;;;;;2.03;0.90;;;;;;;;;;781402;179;1026894;-66
2023/11/15 13:43:46;;;;;;;2.00;1.10;;;;;;;;;;769507;179;920106;-65
2023/11/15 13:46:08;;;;;;;2.20;1.10;;;;;;;;;;773703;179;919447;-66
2023/11/15 13:48:34;;;;;;;2.30;1.37;;;;;;;;;;777423;179;920194;-66
2023/11/15 13:51:00;;;;;;;1.90;0.80;;;;;;;;;;771704;179;916806;-66
2023/11/15 13:53:26;;;;;;;2.00;0.95;;;;;;;;;;772846;177;977781;-67
2023/11/15 13:55:53;;;;;;;2.57;1.40;;;;;;;;;;776627;179;918613;-66
2023/11/15 13:58:18;;;;;;;2.10;1.00;;;;;;;;;;779157;178;918926;-66
2023/11/15 14:00:43;;;;;;;1.90;0.90;;;;;;;;;;776783;178;936304;-65
2023/11/15 14:03:13;;;;;;;2.57;1.20;;;;;;;;;;778329;178;919092;-66
2023/11/15 14:05:35;;;;;;;2.70;1.20;;;;;;;;;;783867;178;816723;-66
2023/11/15 14:08:01;;;;;;;3.73;1.70;;;;;;;;;;776490;178;919083;-67
2023/11/15 14:10:29;;;;;;;2.00;0.90;;;;;;;;;;777990;178;816223;-66
2023/11/15 14:12:52;;;;;;;2.10;1.00;;;;;;;;;;779608;178;918865;-65
2023/11/15 14:15:21;;;;;;;2.13;1.17;;;;;;;;;;776150;179;915542;-65
2023/11/15 14:17:46;;;;;;;2.67;1.30;;;;;;;;;;772435;178;816774;-66
2023/11/15 14:20:11;;;;;;;2.47;1.23;;;;;;;;;;777307;178;917813;-65
2023/11/15 14:22:36;;;;;;;2.50;1.13;;;;;;;;;;782852;177;888639;-66
2023/11/15 14:25:07;;;;;;;3.87;1.70;;;;;;;;;;772472;179;919220;-66